createdAt,value
2023-06-12T00:00:12.677Z,22.19
2023-06-12T00:02:39.283Z,22.15
2023-06-12T00:05:05.712Z,22.11
2023-06-12T00:07:32.032Z,22.02
2023-06-12T00:09:58.383Z,22.06
2023-06-12T00:12:24.770Z,22.03
2023-06-12T00:14:51.116Z,22.09
2023-06-12T00:17:17.455Z,22.06
2023-06-12T00:19:43.826Z,22.25
2023-06-12T00:22:10.167Z,22.53
2023-06-12T00:24:36.576Z,22.34
2023-06-12T00:27:03.030Z,22.32
2023-06-12T00:29:29.390Z,22.40
2023-06-12T00:31:55.757Z,22.35
2023-06-12T00:34:22.139Z,22.30
2023-06-12T00:36:48.516Z,22.29
2023-06-12T00:39:14.883Z,22.39
2023-06-12T00:41:41.264Z,22.39
2023-06-12T00:44:07.610Z,22.39
2023-06-12T00:46:34.008Z,22.39
2023-06-12T00:49:00.434Z,22.37
2023-06-12T00:51:26.772Z,22.26
2023-06-12T00:53:53.116Z,22.25
2023-06-12T00:56:19.475Z,22.21
2023-06-12T00:58:46.102Z,22.10
2023-06-12T01:01:12.549Z,22.14
2023-06-12T01:03:39.019Z,22.16
2023-06-12T01:06:07.116Z,22.24
2023-06-12T01:08:33.580Z,22.24
2023-06-12T01:11:00.014Z,22.10
2023-06-12T01:13:26.371Z,22.01
2023-06-12T01:15:52.736Z,22.25
2023-06-12T01:18:19.222Z,21.92
2023-06-12T01:20:45.580Z,22.12
2023-06-12T01:23:11.927Z,22.05
2023-06-12T01:25:38.326Z,22.10
2023-06-12T01:28:04.667Z,22.08
2023-06-12T01:30:31.003Z,21.78
2023-06-12T01:32:57.509Z,21.89
2023-06-12T01:35:23.917Z,21.88
2023-06-12T01:37:50.246Z,21.90
2023-06-12T01:40:16.656Z,21.91
2023-06-12T01:42:43.001Z,21.79
2023-06-12T01:45:09.386Z,21.80
2023-06-12T01:47:35.914Z,21.89
2023-06-12T01:50:02.339Z,21.93
2023-06-12T01:52:28.680Z,21.67
2023-06-12T01:54:55.034Z,21.62
2023-06-12T01:57:21.399Z,21.78
2023-06-12T01:59:47.737Z,21.79
2023-06-12T02:02:14.146Z,21.58
2023-06-12T02:04:40.490Z,21.79
2023-06-12T02:07:06.835Z,21.79
2023-06-12T02:09:33.499Z,21.75
2023-06-12T02:11:59.840Z,21.68
2023-06-12T02:14:26.176Z,21.75
2023-06-12T02:16:52.552Z,21.70
2023-06-12T02:19:18.911Z,21.65
2023-06-12T02:21:47.337Z,21.74
2023-06-12T02:24:13.743Z,21.62
2023-06-12T02:26:40.092Z,21.71
2023-06-12T02:29:06.693Z,21.54
2023-06-12T02:31:33.134Z,21.65
2023-06-12T02:33:59.502Z,21.61
2023-06-12T02:36:25.848Z,21.57
2023-06-12T02:38:52.261Z,21.62
2023-06-12T02:41:18.595Z,21.47
2023-06-12T02:43:44.930Z,21.49
2023-06-12T02:46:11.386Z,21.67
2023-06-12T02:48:37.769Z,21.61
2023-06-12T02:51:04.101Z,21.57
2023-06-12T02:53:30.472Z,21.58
2023-06-12T02:55:56.839Z,21.67
2023-06-12T02:58:23.169Z,21.65
2023-06-12T03:00:49.524Z,21.50
2023-06-12T03:03:15.972Z,21.46
2023-06-12T03:05:42.442Z,21.47
2023-06-12T03:08:08.812Z,21.38
2023-06-12T03:10:35.152Z,21.17
2023-06-12T03:13:01.488Z,21.42
2023-06-12T03:15:27.838Z,21.18
2023-06-12T03:17:54.412Z,21.15
2023-06-12T03:20:20.765Z,21.15
2023-06-12T03:22:47.122Z,21.07
2023-06-12T03:25:13.618Z,21.16
2023-06-12T03:27:40.009Z,21.05
2023-06-12T03:30:06.380Z,20.85
2023-06-12T03:32:32.775Z,20.91
2023-06-12T03:34:59.125Z,20.97
2023-06-12T03:37:25.486Z,20.85
2023-06-12T03:39:51.814Z,20.87
2023-06-12T03:42:18.173Z,20.51
2023-06-12T03:44:44.550Z,20.52
2023-06-12T03:47:10.968Z,20.75
2023-06-12T03:49:37.314Z,20.61
2023-06-12T03:52:04.395Z,20.91
2023-06-12T03:54:31.562Z,20.76
2023-06-12T03:56:57.893Z,20.85
2023-06-12T03:59:24.260Z,20.68
2023-06-12T04:01:50.599Z,20.45
2023-06-12T04:04:17.053Z,20.64
2023-06-12T04:06:43.948Z,20.49
2023-06-12T04:09:10.417Z,20.48
2023-06-12T04:11:36.760Z,20.73
2023-06-12T04:14:03.120Z,20.47
2023-06-12T04:16:29.609Z,20.51
2023-06-12T04:18:56.057Z,20.72
2023-06-12T04:21:27.946Z,20.58
2023-06-12T04:23:54.361Z,20.63
2023-06-12T04:26:20.724Z,20.47
2023-06-12T04:28:47.085Z,20.52
2023-06-12T04:31:13.488Z,20.73
2023-06-12T04:33:39.913Z,20.79
2023-06-12T04:36:06.272Z,21.29
2023-06-12T04:38:32.635Z,21.49
2023-06-12T04:40:58.973Z,21.47
2023-06-12T04:43:25.329Z,21.55
2023-06-12T04:45:51.674Z,21.44
2023-06-12T04:48:18.154Z,21.66
2023-06-12T04:50:44.603Z,21.66
2023-06-12T04:53:10.979Z,21.56
2023-06-12T04:55:37.325Z,21.61
2023-06-12T04:58:07.864Z,21.74
2023-06-12T05:00:34.302Z,21.83
2023-06-12T05:03:00.761Z,21.83
2023-06-12T05:05:27.137Z,21.81
2023-06-12T05:07:53.482Z,21.87
2023-06-12T05:10:19.825Z,22.00
2023-06-12T05:12:46.223Z,22.00
2023-06-12T05:15:12.642Z,21.99
2023-06-12T05:17:39.122Z,22.18
2023-06-12T05:20:05.565Z,22.56
2023-06-12T05:22:31.909Z,22.51
2023-06-12T05:24:58.242Z,22.70
2023-06-12T05:27:24.610Z,22.48
2023-06-12T05:29:50.970Z,22.43
2023-06-12T05:32:17.318Z,21.95
2023-06-12T05:34:43.690Z,22.15
2023-06-12T05:37:10.057Z,22.51
2023-06-12T05:39:36.386Z,22.69
2023-06-12T05:42:02.767Z,22.68
2023-06-12T05:44:29.151Z,22.96
2023-06-12T05:46:55.537Z,22.30
2023-06-12T05:49:22.550Z,22.92
2023-06-12T05:51:49.168Z,22.80
2023-06-12T05:54:15.663Z,22.87
2023-06-12T05:56:42.066Z,23.00
2023-06-12T05:59:08.418Z,22.44
2023-06-12T06:01:34.773Z,22.62
2023-06-12T06:04:01.305Z,22.16
2023-06-12T06:06:27.792Z,22.06
2023-06-12T06:08:54.141Z,22.79
2023-06-12T06:11:20.494Z,21.90
2023-06-12T06:13:46.834Z,22.02
2023-06-12T06:16:13.293Z,21.92
2023-06-12T06:18:39.698Z,22.81
2023-06-12T06:21:06.064Z,23.49
2023-06-12T06:23:32.411Z,23.76
2023-06-12T06:25:58.780Z,24.10
2023-06-12T06:28:25.145Z,24.14
2023-06-12T06:30:51.501Z,23.39
2023-06-12T06:33:17.865Z,23.88
2023-06-12T06:35:44.202Z,23.70
2023-06-12T06:38:10.537Z,23.62
2023-06-12T06:40:36.901Z,23.23
2023-06-12T06:43:03.249Z,22.97
2023-06-12T06:45:29.601Z,22.96
2023-06-12T06:47:55.980Z,22.53
2023-06-12T06:50:22.401Z,23.00
2023-06-12T06:52:48.747Z,22.83
2023-06-12T06:55:15.310Z,22.68
2023-06-12T06:57:41.773Z,22.88
2023-06-12T07:00:08.127Z,22.71
2023-06-12T07:02:34.563Z,22.13
2023-06-12T07:05:00.925Z,22.73
2023-06-12T07:07:27.268Z,22.41
2023-06-12T07:09:53.667Z,22.86
2023-06-12T07:12:20.055Z,22.66
2023-06-12T07:14:46.420Z,22.63
2023-06-12T07:17:12.781Z,22.83
2023-06-12T07:19:39.130Z,22.67
2023-06-12T07:22:05.466Z,22.59
2023-06-12T07:24:31.901Z,22.62
2023-06-12T07:26:58.300Z,22.30
2023-06-12T07:29:24.656Z,22.66
2023-06-12T07:31:51.052Z,22.09
2023-06-12T07:34:17.441Z,22.01
2023-06-12T07:36:43.784Z,22.13
2023-06-12T07:39:10.167Z,21.97
2023-06-12T07:41:36.543Z,22.30
2023-06-12T07:44:02.885Z,22.30
2023-06-12T07:46:29.301Z,22.29
2023-06-12T07:48:55.652Z,22.52
2023-06-12T07:51:22.000Z,22.66
2023-06-12T07:53:48.371Z,22.70
2023-06-12T07:56:14.759Z,22.59
2023-06-12T07:58:41.127Z,22.44
2023-06-12T08:01:07.496Z,22.33
2023-06-12T08:03:33.881Z,22.47
2023-06-12T08:06:03.523Z,22.87
2023-06-12T08:08:31.307Z,22.78
2023-06-12T08:10:57.647Z,22.38
2023-06-12T08:13:24.037Z,22.86
2023-06-12T08:15:50.409Z,23.07
2023-06-12T08:18:16.782Z,23.32
2023-06-12T08:20:45.886Z,22.99
2023-06-12T08:23:12.242Z,23.38
2023-06-12T08:25:38.607Z,23.23
2023-06-12T08:28:04.968Z,22.94
2023-06-12T08:30:31.335Z,23.04
2023-06-12T08:32:57.778Z,22.96
2023-06-12T08:35:24.149Z,23.56
2023-06-12T08:37:50.511Z,23.49
2023-06-12T08:40:16.860Z,23.84
2023-06-12T08:42:43.202Z,23.75
2023-06-12T08:45:20.953Z,23.86
2023-06-12T08:47:48.746Z,23.43
2023-06-12T08:50:15.161Z,23.68
2023-06-12T08:52:41.505Z,23.42
2023-06-12T08:55:07.863Z,23.87
2023-06-12T08:57:34.244Z,24.10
2023-06-12T09:00:00.616Z,24.00
2023-06-12T09:02:27.045Z,23.84
2023-06-12T09:04:53.622Z,24.12
2023-06-12T09:07:20.061Z,24.47
2023-06-12T09:09:46.427Z,24.47
2023-06-12T09:12:12.850Z,24.31
2023-06-12T09:14:39.251Z,24.64
2023-06-12T09:17:05.599Z,24.73
2023-06-12T09:19:31.971Z,24.72
2023-06-12T09:21:58.307Z,24.99
2023-06-12T09:24:24.750Z,24.98
2023-06-12T09:26:51.175Z,25.27
2023-06-12T09:29:17.667Z,25.39
2023-06-12T09:31:44.090Z,25.30
2023-06-12T09:34:10.494Z,25.21
2023-06-12T09:36:36.847Z,25.00
2023-06-12T09:39:03.185Z,25.73
2023-06-12T09:41:29.589Z,25.78
2023-06-12T09:43:55.942Z,25.75
2023-06-12T09:46:22.378Z,25.83
2023-06-12T09:48:48.792Z,25.54
2023-06-12T09:51:15.128Z,25.53
2023-06-12T09:53:41.548Z,25.88
2023-06-12T09:56:07.931Z,25.86
2023-06-12T09:58:34.352Z,26.29
2023-06-12T10:01:00.695Z,26.33
2023-06-12T10:03:27.110Z,26.06
2023-06-12T10:05:53.499Z,26.52
2023-06-12T10:08:19.876Z,26.25
2023-06-12T10:10:46.496Z,26.94
2023-06-12T10:13:12.869Z,26.41
2023-06-12T10:15:39.202Z,26.69
2023-06-12T10:18:05.665Z,26.43
2023-06-12T10:20:32.071Z,25.93
2023-06-12T10:22:58.428Z,26.57
2023-06-12T10:25:24.786Z,26.50
2023-06-12T10:27:51.164Z,26.06
2023-06-12T10:30:17.624Z,26.20
2023-06-12T10:32:44.091Z,26.91
2023-06-12T10:35:10.452Z,27.03
2023-06-12T10:37:38.891Z,26.73
2023-06-12T10:40:05.262Z,26.71
2023-06-12T10:42:33.947Z,26.70
2023-06-12T10:45:00.377Z,26.86
2023-06-12T10:47:26.820Z,27.43
2023-06-12T10:49:53.190Z,27.40
2023-06-12T10:52:19.548Z,27.51
2023-06-12T10:54:45.936Z,27.54
2023-06-12T10:57:12.408Z,27.42
2023-06-12T10:59:38.794Z,26.92
2023-06-12T11:02:05.336Z,27.14
2023-06-12T11:04:31.951Z,27.41
2023-06-12T11:06:58.445Z,27.25
2023-06-12T11:09:24.858Z,27.68
2023-06-12T11:11:51.202Z,27.52
2023-06-12T11:14:17.564Z,27.29
2023-06-12T11:16:44.070Z,27.12
2023-06-12T11:19:10.462Z,27.13
2023-06-12T11:21:36.991Z,27.09
2023-06-12T11:24:03.494Z,27.52
2023-06-12T11:26:29.860Z,27.80
2023-06-12T11:28:56.208Z,27.28
2023-06-12T11:31:22.590Z,27.80
2023-06-12T11:33:48.975Z,27.81
2023-06-12T11:36:15.499Z,27.85
2023-06-12T11:41:11.382Z,26.88
2023-06-12T11:43:37.730Z,26.79
2023-06-12T11:46:04.389Z,27.43
2023-06-12T11:51:00.057Z,27.88
2023-06-12T11:53:26.439Z,27.39
2023-06-12T11:58:23.036Z,26.47
2023-06-12T12:00:49.536Z,26.35
2023-06-12T12:03:15.956Z,26.15
2023-06-12T12:05:42.329Z,26.08
2023-06-12T12:08:08.910Z,26.35
2023-06-12T12:10:35.285Z,26.51
2023-06-12T12:13:01.631Z,27.08
2023-06-12T12:15:27.992Z,27.17
2023-06-12T12:17:54.361Z,26.72
2023-06-12T12:20:20.728Z,27.05
2023-06-12T12:22:47.109Z,27.34
2023-06-12T12:25:13.449Z,26.52
2023-06-12T12:27:39.820Z,26.56
2023-06-12T12:30:06.260Z,26.33
2023-06-12T12:32:32.639Z,26.38
2023-06-12T12:34:59.112Z,26.97
2023-06-12T12:37:25.562Z,26.79
2023-06-12T12:39:51.952Z,26.53
2023-06-12T12:42:18.329Z,26.32
2023-06-12T12:44:44.698Z,27.01
2023-06-12T12:47:11.077Z,26.44
2023-06-12T12:49:48.189Z,26.46
2023-06-12T12:52:25.221Z,26.56
2023-06-12T12:55:01.864Z,26.21
2023-06-12T12:57:28.246Z,26.31
2023-06-12T12:59:54.609Z,26.24
2023-06-12T13:02:20.988Z,26.30
2023-06-12T13:04:47.375Z,26.29
2023-06-12T13:07:13.701Z,26.07
2023-06-12T13:09:40.036Z,26.69
2023-06-12T13:12:06.398Z,26.63
2023-06-12T13:14:32.738Z,26.30
2023-06-12T13:16:59.126Z,26.27
2023-06-12T13:19:25.542Z,26.26
2023-06-12T13:21:51.890Z,26.58
2023-06-12T13:24:18.429Z,26.80
2023-06-12T13:26:44.918Z,27.14
2023-06-12T13:29:11.313Z,26.52
2023-06-12T13:31:37.695Z,26.41
2023-06-12T13:34:04.136Z,26.48
2023-06-12T13:36:30.479Z,26.21
2023-06-12T13:38:56.858Z,26.12
2023-06-12T13:41:23.268Z,26.47
2023-06-12T13:43:49.634Z,26.36
2023-06-12T13:46:16.238Z,26.16
2023-06-12T13:48:42.668Z,26.11
2023-06-12T13:51:09.023Z,26.28
2023-06-12T13:53:35.392Z,26.11
2023-06-12T13:56:01.821Z,26.49
2023-06-12T13:58:28.180Z,26.22
2023-06-12T14:00:54.533Z,26.38
2023-06-12T14:03:20.890Z,26.47
2023-06-12T14:05:47.238Z,26.46
2023-06-12T14:08:13.598Z,26.63
2023-06-12T14:10:39.990Z,26.39
2023-06-12T14:13:06.350Z,26.28
2023-06-12T14:15:32.698Z,26.72
2023-06-12T14:17:59.107Z,26.66
2023-06-12T14:20:25.487Z,26.76
2023-06-12T14:22:51.832Z,26.66
2023-06-12T14:25:18.735Z,26.59
2023-06-12T14:27:45.555Z,26.43
2023-06-12T14:30:11.898Z,26.81
2023-06-12T14:32:38.264Z,26.43
2023-06-12T14:35:04.760Z,26.38
2023-06-12T14:37:31.173Z,26.59
2023-06-12T14:39:57.551Z,26.69
2023-06-12T14:42:23.893Z,26.48
2023-06-12T14:44:50.227Z,26.28
2023-06-12T14:47:16.586Z,26.35
2023-06-12T14:49:42.934Z,26.34
2023-06-12T14:52:20.288Z,26.38
2023-06-12T14:54:54.270Z,26.25
2023-06-12T14:57:20.621Z,26.17
2023-06-12T14:59:46.965Z,26.36
2023-06-12T15:02:13.389Z,26.37
2023-06-12T15:04:39.811Z,26.47
2023-06-12T15:07:06.163Z,26.52
2023-06-12T15:09:32.515Z,26.41
2023-06-12T15:11:58.844Z,26.13
2023-06-12T15:14:25.184Z,26.19
2023-06-12T15:16:51.592Z,26.11
2023-06-12T15:19:18.024Z,26.13
2023-06-12T15:21:44.411Z,26.35
2023-06-12T15:24:11.033Z,26.51
2023-06-12T15:26:37.540Z,26.41
2023-06-12T15:29:03.886Z,26.04
2023-06-12T15:31:30.311Z,26.00
2023-06-12T15:33:56.697Z,25.85
2023-06-12T15:36:23.037Z,25.95
2023-06-12T15:38:49.419Z,26.06
2023-06-12T15:41:15.777Z,26.11
2023-06-12T15:43:42.118Z,26.16
2023-06-12T15:46:08.526Z,26.21
2023-06-12T15:48:34.984Z,26.30
2023-06-12T15:51:01.360Z,26.51
2023-06-12T15:53:27.749Z,26.12
2023-06-12T15:55:54.109Z,26.31
2023-06-12T15:58:20.458Z,26.23
2023-06-12T16:00:46.842Z,26.38
2023-06-12T16:03:13.251Z,26.36
2023-06-12T16:05:39.991Z,26.20
2023-06-12T16:08:06.462Z,26.24
2023-06-12T16:10:32.835Z,26.10
2023-06-12T16:12:59.195Z,26.28
2023-06-12T16:15:25.558Z,26.10
2023-06-12T16:17:51.941Z,26.01
2023-06-12T16:20:18.298Z,25.94
2023-06-12T16:22:44.663Z,25.90
2023-06-12T16:25:11.175Z,25.88
2023-06-12T16:27:37.665Z,25.80
2023-06-12T16:30:04.041Z,25.70
2023-06-12T16:32:30.480Z,25.74
2023-06-12T16:34:56.866Z,25.74
2023-06-12T16:37:23.277Z,25.68
2023-06-12T16:39:49.615Z,25.87
2023-06-12T16:42:15.957Z,25.95
2023-06-12T16:44:42.329Z,25.77
2023-06-12T16:47:08.661Z,25.90
2023-06-12T16:49:35.011Z,25.88
2023-06-12T16:52:03.267Z,25.75
2023-06-12T16:54:29.992Z,25.74
2023-06-12T16:56:56.330Z,25.75
2023-06-12T16:59:22.694Z,25.67
2023-06-12T17:01:49.107Z,25.62
2023-06-12T17:04:15.620Z,25.70
2023-06-12T17:06:42.094Z,25.69
2023-06-12T17:09:08.453Z,25.63
2023-06-12T17:11:34.801Z,25.56
2023-06-12T17:14:01.194Z,25.64
2023-06-12T17:16:27.613Z,25.68
2023-06-12T17:18:54.042Z,25.57
2023-06-12T17:21:20.413Z,25.67
2023-06-12T17:23:46.802Z,25.43
2023-06-12T17:26:13.170Z,25.61
2023-06-12T17:28:39.521Z,25.62
2023-06-12T17:31:05.919Z,25.60
2023-06-12T17:33:32.290Z,25.57
2023-06-12T17:35:58.669Z,25.40
2023-06-12T17:38:25.030Z,25.46
2023-06-12T17:40:51.372Z,25.41
2023-06-12T17:43:17.748Z,25.35
2023-06-12T17:45:44.099Z,25.42
2023-06-12T17:48:10.574Z,25.38
2023-06-12T17:50:37.001Z,25.36
2023-06-12T17:53:03.438Z,25.23
2023-06-12T17:55:29.795Z,25.33
2023-06-12T17:57:56.207Z,25.30
2023-06-12T18:00:22.584Z,25.29
2023-06-12T18:02:49.003Z,25.33
2023-06-12T18:05:15.732Z,25.27
2023-06-12T18:07:42.400Z,25.18
2023-06-12T18:10:08.792Z,25.28
2023-06-12T18:12:35.194Z,25.34
2023-06-12T18:15:01.533Z,25.49
2023-06-12T18:17:28.226Z,25.57
2023-06-12T18:19:54.764Z,25.22
2023-06-12T18:22:21.116Z,25.20
2023-06-12T18:24:47.565Z,25.19
2023-06-12T18:27:13.955Z,25.18
2023-06-12T18:29:40.306Z,25.13
2023-06-12T18:32:06.769Z,24.99
2023-06-12T18:34:33.196Z,25.15
2023-06-12T18:36:59.555Z,25.07
2023-06-12T18:39:25.888Z,25.12
2023-06-12T18:41:52.259Z,25.25
2023-06-12T18:44:18.606Z,25.15
2023-06-12T18:46:45.032Z,25.27
2023-06-12T18:49:11.409Z,25.34
2023-06-12T18:51:38.310Z,25.32
2023-06-12T18:54:04.723Z,25.15
2023-06-12T18:56:31.083Z,24.87
2023-06-12T18:58:57.427Z,24.93
2023-06-12T19:01:23.797Z,24.76
2023-06-12T19:03:50.297Z,24.73
2023-06-12T19:06:16.686Z,24.89
2023-06-12T19:08:43.095Z,24.84
2023-06-12T19:11:09.486Z,24.55
2023-06-12T19:13:35.893Z,24.63
2023-06-12T19:16:02.271Z,24.46
2023-06-12T19:18:28.651Z,24.69
2023-06-12T19:20:55.024Z,24.72
2023-06-12T19:23:21.393Z,24.64
2023-06-12T19:25:48.514Z,24.26
2023-06-12T19:28:17.014Z,24.38
2023-06-12T19:30:43.355Z,24.55
2023-06-12T19:33:09.733Z,24.44
2023-06-12T19:35:36.076Z,24.41
2023-06-12T19:38:02.453Z,24.16
2023-06-12T19:40:28.862Z,24.18
2023-06-12T19:42:55.197Z,24.22
2023-06-12T19:45:21.734Z,24.20
2023-06-12T19:47:48.123Z,24.26
2023-06-12T19:50:14.454Z,24.25
2023-06-12T19:52:41.916Z,23.99
2023-06-12T19:55:08.313Z,23.96
2023-06-12T19:57:34.666Z,23.90
2023-06-12T20:00:01.036Z,23.98
2023-06-12T20:02:27.426Z,24.05
2023-06-12T20:04:53.788Z,24.21
2023-06-12T20:07:20.151Z,23.96
2023-06-12T20:09:46.567Z,24.05
2023-06-12T20:12:13.006Z,24.02
2023-06-12T20:14:39.366Z,23.92
2023-06-12T20:17:05.753Z,23.74
2023-06-12T20:19:32.094Z,23.71
2023-06-12T20:21:58.519Z,23.63
2023-06-12T20:24:29.003Z,23.69
2023-06-12T20:26:57.170Z,23.66
2023-06-12T20:29:23.536Z,23.53
2023-06-12T20:31:49.961Z,23.48
2023-06-12T20:34:16.384Z,23.57
2023-06-12T20:36:42.759Z,23.58
2023-06-12T20:39:09.154Z,23.44
2023-06-12T20:41:35.579Z,23.44
2023-06-12T20:44:01.924Z,23.36
2023-06-12T20:46:28.314Z,23.54
2023-06-12T20:48:54.875Z,23.47
2023-06-12T20:51:21.220Z,23.39
2023-06-12T20:53:47.580Z,23.34
2023-06-12T20:56:13.917Z,23.33
2023-06-12T20:58:40.254Z,23.21
2023-06-12T21:01:06.642Z,23.16
2023-06-12T21:03:33.044Z,23.17
2023-06-12T21:05:59.396Z,23.14
2023-06-12T21:08:25.810Z,23.08
2023-06-12T21:10:52.153Z,23.07
2023-06-12T21:13:18.490Z,23.09
2023-06-12T21:15:44.994Z,23.01
2023-06-12T21:18:11.383Z,23.10
2023-06-12T21:20:37.737Z,23.22
2023-06-12T21:23:04.079Z,23.17
2023-06-12T21:25:30.431Z,23.24
2023-06-12T21:27:56.769Z,23.23
2023-06-12T21:30:23.126Z,23.14
2023-06-12T21:32:49.498Z,23.13
2023-06-12T21:35:16.118Z,23.15
2023-06-12T21:37:42.608Z,23.10
2023-06-12T21:40:08.943Z,23.05
2023-06-12T21:42:35.280Z,23.02
2023-06-12T21:45:01.647Z,23.00
2023-06-12T21:47:28.056Z,22.99
2023-06-12T21:49:54.461Z,22.99
2023-06-12T21:52:20.831Z,22.97
2023-06-12T21:54:47.157Z,22.95
2023-06-12T21:57:13.496Z,22.94
2023-06-12T21:59:39.871Z,22.95
2023-06-12T22:02:06.207Z,22.88
2023-06-12T22:04:33.663Z,22.97
2023-06-12T22:07:00.271Z,22.85
2023-06-12T22:09:26.601Z,22.84
2023-06-12T22:11:52.947Z,22.96
2023-06-12T22:14:19.309Z,22.79
2023-06-12T22:16:45.746Z,22.68
2023-06-12T22:19:12.229Z,22.71
2023-06-12T22:21:38.693Z,22.78
2023-06-12T22:24:05.119Z,22.82
2023-06-12T22:26:31.524Z,22.69
2023-06-12T22:28:57.877Z,22.60
2023-06-12T22:31:24.232Z,22.56
2023-06-12T22:33:50.598Z,22.53
2023-06-12T22:36:16.949Z,22.51
2023-06-12T22:38:43.303Z,22.51
2023-06-12T22:41:09.628Z,22.64
2023-06-12T22:43:35.986Z,22.61
2023-06-12T22:46:02.363Z,22.48
2023-06-12T22:48:28.716Z,22.49
2023-06-12T22:50:55.080Z,22.53
2023-06-12T22:53:21.439Z,22.46
2023-06-12T22:55:47.870Z,22.35
2023-06-12T22:58:14.236Z,22.32
2023-06-12T23:00:40.586Z,22.41
2023-06-12T23:03:06.999Z,22.20
2023-06-12T23:05:33.403Z,22.28
2023-06-12T23:07:59.770Z,22.36
2023-06-12T23:10:26.132Z,22.29
2023-06-12T23:12:52.496Z,22.33
2023-06-12T23:15:18.851Z,22.23
2023-06-12T23:17:45.272Z,22.20
2023-06-12T23:20:11.846Z,22.22
2023-06-12T23:22:38.325Z,22.22
2023-06-12T23:25:04.690Z,22.17
2023-06-12T23:27:31.105Z,22.15
2023-06-12T23:29:57.455Z,22.18
2023-06-12T23:32:23.798Z,22.02
2023-06-12T23:34:50.194Z,22.14
2023-06-12T23:37:16.556Z,22.04
2023-06-12T23:39:42.914Z,22.05
2023-06-12T23:42:09.333Z,22.01
2023-06-12T23:44:35.824Z,22.06
2023-06-12T23:47:02.167Z,22.04
2023-06-12T23:49:28.545Z,21.94
2023-06-12T23:51:55.027Z,21.91
2023-06-12T23:54:21.398Z,21.92
2023-06-12T23:56:47.764Z,21.80
2023-06-12T23:59:14.120Z,21.92
